sensor_id;sensor_type;location;lat;lon;timestamp;P1;durP1;ratioP1;P2;durP2;ratioP2
11113;SDS011;5610;52.154;9.198;2023-10-08T00:01:06;20.20;;;8.37;;
11113;SDS011;5610;52.154;9.198;2023-10-08T00:03:52;15.67;;;7.90;;
11113;SDS011;5610;52.154;9.198;2023-10-08T00:06:41;15.97;;;9.13;;
11113;SDS011;5610;52.154;9.198;2023-10-08T00:09:29;14.83;;;7.90;;
11113;SDS011;5610;52.154;9.198;2023-10-08T00:12:19;19.20;;;8.20;;
11113;SDS011;5610;52.154;9.198;2023-10-08T00:15:05;12.20;;;9.00;;
11113;SDS011;5610;52.154;9.198;2023-10-08T00:17:54;3.90;;;2.70;;
11113;SDS011;5610;52.154;9.198;2023-10-08T00:20:43;1.70;;;1.13;;
11113;SDS011;5610;52.154;9.198;2023-10-08T00:23:38;1.60;;;1.10;;
11113;SDS011;5610;52.154;9.198;2023-10-08T00:26:26;1.77;;;0.90;;
11113;SDS011;5610;52.154;9.198;2023-10-08T00:29:13;0.50;;;0.50;;
11113;SDS011;5610;52.154;9.198;2023-10-08T00:32:05;1.07;;;0.60;;
11113;SDS011;5610;52.154;9.198;2023-10-08T00:34:55;4.77;;;0.50;;
11113;SDS011;5610;52.154;9.198;2023-10-08T00:37:41;0.50;;;0.40;;
11113;SDS011;5610;52.154;9.198;2023-10-08T00:40:35;1.17;;;0.30;;
11113;SDS011;5610;52.154;9.198;2023-10-08T00:43:31;0.73;;;0.30;;
11113;SDS011;5610;52.154;9.198;2023-10-08T00:46:17;0.50;;;0.30;;
11113;SDS011;5610;52.154;9.198;2023-10-08T00:49:08;0.40;;;0.30;;
11113;SDS011;5610;52.154;9.198;2023-10-08T00:52:08;0.50;;;0.30;;
11113;SDS011;5610;52.154;9.198;2023-10-08T00:55:10;0.40;;;0.20;;
11113;SDS011;5610;52.154;9.198;2023-10-08T00:58:04;0.67;;;0.30;;
11113;SDS011;5610;52.154;9.198;2023-10-08T01:00:54;2.77;;;0.30;;
11113;SDS011;5610;52.154;9.198;2023-10-08T01:03:43;0.40;;;0.20;;
11113;SDS011;5610;52.154;9.198;2023-10-08T01:06:28;0.80;;;0.27;;
11113;SDS011;5610;52.154;9.198;2023-10-08T01:09:14;0.40;;;0.30;;
11113;SDS011;5610;52.154;9.198;2023-10-08T01:12:08;1.23;;;0.37;;
11113;SDS011;5610;52.154;9.198;2023-10-08T01:14:56;0.40;;;0.30;;
11113;SDS011;5610;52.154;9.198;2023-10-08T01:17:49;0.50;;;0.30;;
11113;SDS011;5610;52.154;9.198;2023-10-08T01:20:35;0.83;;;0.30;;
11113;SDS011;5610;52.154;9.198;2023-10-08T01:23:23;0.40;;;0.20;;
11113;SDS011;5610;52.154;9.198;2023-10-08T01:26:11;1.23;;;0.30;;
11113;SDS011;5610;52.154;9.198;2023-10-08T01:28:59;0.50;;;0.30;;
11113;SDS011;5610;52.154;9.198;2023-10-08T01:31:50;0.40;;;0.30;;
11113;SDS011;5610;52.154;9.198;2023-10-08T01:34:37;0.40;;;0.20;;
11113;SDS011;5610;52.154;9.198;2023-10-08T01:37:22;1.80;;;0.30;;
11113;SDS011;5610;52.154;9.198;2023-10-08T01:40:10;0.60;;;0.30;;
11113;SDS011;5610;52.154;9.198;2023-10-08T01:42:55;0.50;;;0.30;;
11113;SDS011;5610;52.154;9.198;2023-10-08T01:45:44;0.50;;;0.30;;
11113;SDS011;5610;52.154;9.198;2023-10-08T01:48:32;0.50;;;0.30;;
11113;SDS011;5610;52.154;9.198;2023-10-08T01:51:21;0.50;;;0.30;;
11113;SDS011;5610;52.154;9.198;2023-10-08T01:54:12;0.43;;;0.30;;
11113;SDS011;5610;52.154;9.198;2023-10-08T01:57:02;2.73;;;0.40;;
11113;SDS011;5610;52.154;9.198;2023-10-08T01:59:48;0.60;;;0.50;;
11113;SDS011;5610;52.154;9.198;2023-10-08T02:02:33;1.00;;;0.67;;
11113;SDS011;5610;52.154;9.198;2023-10-08T02:05:18;0.70;;;0.33;;
11113;SDS011;5610;52.154;9.198;2023-10-08T02:08:04;1.73;;;0.40;;
11113;SDS011;5610;52.154;9.198;2023-10-08T02:10:50;3.60;;;0.63;;
11113;SDS011;5610;52.154;9.198;2023-10-08T02:13:37;1.00;;;0.67;;
11113;SDS011;5610;52.154;9.198;2023-10-08T02:16:23;2.10;;;0.50;;
11113;SDS011;5610;52.154;9.198;2023-10-08T02:19:08;2.83;;;0.70;;
11113;SDS011;5610;52.154;9.198;2023-10-08T02:21:54;3.67;;;1.17;;
11113;SDS011;5610;52.154;9.198;2023-10-08T02:24:40;4.40;;;1.50;;
11113;SDS011;5610;52.154;9.198;2023-10-08T02:27:26;3.70;;;1.13;;
11113;SDS011;5610;52.154;9.198;2023-10-08T02:30:13;2.27;;;1.27;;
11113;SDS011;5610;52.154;9.198;2023-10-08T02:32:58;1.53;;;1.07;;
11113;SDS011;5610;52.154;9.198;2023-10-08T02:35:44;2.97;;;1.30;;
11113;SDS011;5610;52.154;9.198;2023-10-08T02:38:30;7.97;;;2.20;;
11113;SDS011;5610;52.154;9.198;2023-10-08T02:41:21;4.80;;;2.07;;
11113;SDS011;5610;52.154;9.198;2023-10-08T02:44:08;6.70;;;2.03;;
11113;SDS011;5610;52.154;9.198;2023-10-08T02:46:57;3.30;;;1.40;;
11113;SDS011;5610;52.154;9.198;2023-10-08T02:49:43;5.70;;;1.50;;
11113;SDS011;5610;52.154;9.198;2023-10-08T02:52:28;4.77;;;1.40;;
11113;SDS011;5610;52.154;9.198;2023-10-08T02:55:13;3.00;;;1.40;;
11113;SDS011;5610;52.154;9.198;2023-10-08T02:58:11;6.83;;;1.30;;
11113;SDS011;5610;52.154;9.198;2023-10-08T03:00:59;3.40;;;1.57;;
11113;SDS011;5610;52.154;9.198;2023-10-08T03:03:46;6.60;;;1.73;;
11113;SDS011;5610;52.154;9.198;2023-10-08T03:06:31;5.67;;;1.50;;
11113;SDS011;5610;52.154;9.198;2023-10-08T03:09:17;3.20;;;1.70;;
11113;SDS011;5610;52.154;9.198;2023-10-08T03:12:07;4.17;;;1.40;;
11113;SDS011;5610;52.154;9.198;2023-10-08T03:14:53;5.30;;;2.03;;
11113;SDS011;5610;52.154;9.198;2023-10-08T03:17:58;4.03;;;1.50;;
11113;SDS011;5610;52.154;9.198;2023-10-08T03:20:54;2.50;;;1.33;;
11113;SDS011;5610;52.154;9.198;2023-10-08T03:23:47;7.30;;;1.90;;
11113;SDS011;5610;52.154;9.198;2023-10-08T03:26:34;5.90;;;1.33;;
11113;SDS011;5610;52.154;9.198;2023-10-08T03:29:21;3.50;;;1.60;;
11113;SDS011;5610;52.154;9.198;2023-10-08T03:32:15;6.03;;;1.30;;
11113;SDS011;5610;52.154;9.198;2023-10-08T03:35:00;5.50;;;1.70;;
11113;SDS011;5610;52.154;9.198;2023-10-08T03:37:49;3.03;;;1.33;;
11113;SDS011;5610;52.154;9.198;2023-10-08T03:40:34;13.83;;;6.37;;
11113;SDS011;5610;52.154;9.198;2023-10-08T03:43:27;5.23;;;2.60;;
11113;SDS011;5610;52.154;9.198;2023-10-08T03:46:26;4.27;;;1.30;;
11113;SDS011;5610;52.154;9.198;2023-10-08T03:49:11;3.03;;;1.37;;
11113;SDS011;5610;52.154;9.198;2023-10-08T03:52:08;4.93;;;1.50;;
11113;SDS011;5610;52.154;9.198;2023-10-08T03:54:55;2.33;;;1.17;;
11113;SDS011;5610;52.154;9.198;2023-10-08T03:57:49;3.43;;;1.30;;
11113;SDS011;5610;52.154;9.198;2023-10-08T04:00:42;4.33;;;2.00;;
11113;SDS011;5610;52.154;9.198;2023-10-08T04:03:29;5.17;;;1.43;;
11113;SDS011;5610;52.154;9.198;2023-10-08T04:06:35;4.73;;;1.47;;
11113;SDS011;5610;52.154;9.198;2023-10-08T04:09:22;6.33;;;1.33;;
11113;SDS011;5610;52.154;9.198;2023-10-08T04:12:09;4.63;;;1.67;;
11113;SDS011;5610;52.154;9.198;2023-10-08T04:14:55;4.83;;;1.83;;
11113;SDS011;5610;52.154;9.198;2023-10-08T04:17:40;6.17;;;1.47;;
11113;SDS011;5610;52.154;9.198;2023-10-08T04:20:28;4.63;;;1.87;;
11113;SDS011;5610;52.154;9.198;2023-10-08T04:23:17;2.27;;;1.10;;
11113;SDS011;5610;52.154;9.198;2023-10-08T04:26:04;2.97;;;1.20;;
11113;SDS011;5610;52.154;9.198;2023-10-08T04:28:52;4.00;;;2.00;;
11113;SDS011;5610;52.154;9.198;2023-10-08T04:31:41;5.33;;;1.57;;
11113;SDS011;5610;52.154;9.198;2023-10-08T04:34:30;4.03;;;1.60;;
11113;SDS011;5610;52.154;9.198;2023-10-08T04:37:17;3.80;;;1.37;;
11113;SDS011;5610;52.154;9.198;2023-10-08T04:40:04;2.83;;;1.30;;
11113;SDS011;5610;52.154;9.198;2023-10-08T04:42:59;4.80;;;1.60;;
11113;SDS011;5610;52.154;9.198;2023-10-08T04:45:47;2.13;;;1.10;;
11113;SDS011;5610;52.154;9.198;2023-10-08T04:48:33;4.47;;;1.53;;
11113;SDS011;5610;52.154;9.198;2023-10-08T04:51:20;2.87;;;1.30;;
11113;SDS011;5610;52.154;9.198;2023-10-08T04:54:06;4.47;;;1.70;;
11113;SDS011;5610;52.154;9.198;2023-10-08T04:56:52;2.50;;;1.30;;
11113;SDS011;5610;52.154;9.198;2023-10-08T04:59:37;5.23;;;1.90;;
11113;SDS011;5610;52.154;9.198;2023-10-08T05:02:24;2.70;;;1.40;;
11113;SDS011;5610;52.154;9.198;2023-10-08T05:05:18;4.40;;;1.73;;
11113;SDS011;5610;52.154;9.198;2023-10-08T05:08:06;3.73;;;1.30;;
11113;SDS011;5610;52.154;9.198;2023-10-08T05:11:13;3.10;;;1.00;;
11113;SDS011;5610;52.154;9.198;2023-10-08T05:14:08;3.23;;;0.90;;
11113;SDS011;5610;52.154;9.198;2023-10-08T05:17:11;2.03;;;1.30;;
11113;SDS011;5610;52.154;9.198;2023-10-08T05:20:07;4.70;;;1.30;;
11113;SDS011;5610;52.154;9.198;2023-10-08T05:23:05;2.97;;;1.27;;
11113;SDS011;5610;52.154;9.198;2023-10-08T05:26:04;4.20;;;1.40;;
11113;SDS011;5610;52.154;9.198;2023-10-08T05:29:04;4.20;;;1.37;;
11113;SDS011;5610;52.154;9.198;2023-10-08T05:32:08;5.27;;;1.63;;
11113;SDS011;5610;52.154;9.198;2023-10-08T05:35:23;1.97;;;1.20;;
11113;SDS011;5610;52.154;9.198;2023-10-08T05:38:31;4.33;;;1.17;;
11113;SDS011;5610;52.154;9.198;2023-10-08T05:41:44;2.50;;;1.40;;
11113;SDS011;5610;52.154;9.198;2023-10-08T05:44:35;3.80;;;1.53;;
11113;SDS011;5610;52.154;9.198;2023-10-08T05:47:23;4.77;;;1.57;;
11113;SDS011;5610;52.154;9.198;2023-10-08T05:50:23;5.70;;;1.30;;
11113;SDS011;5610;52.154;9.198;2023-10-08T05:53:23;4.57;;;1.40;;
11113;SDS011;5610;52.154;9.198;2023-10-08T05:56:27;4.60;;;1.40;;
11113;SDS011;5610;52.154;9.198;2023-10-08T05:59:26;6.40;;;1.30;;
11113;SDS011;5610;52.154;9.198;2023-10-08T06:02:22;1.60;;;1.07;;
11113;SDS011;5610;52.154;9.198;2023-10-08T06:05:11;2.50;;;1.30;;
11113;SDS011;5610;52.154;9.198;2023-10-08T06:08:05;2.30;;;1.20;;
11113;SDS011;5610;52.154;9.198;2023-10-08T06:10:56;3.00;;;1.60;;
11113;SDS011;5610;52.154;9.198;2023-10-08T06:13:44;5.13;;;1.73;;
11113;SDS011;5610;52.154;9.198;2023-10-08T06:16:40;3.90;;;1.30;;
11113;SDS011;5610;52.154;9.198;2023-10-08T06:19:30;3.37;;;1.70;;
11113;SDS011;5610;52.154;9.198;2023-10-08T06:22:15;5.17;;;1.53;;
11113;SDS011;5610;52.154;9.198;2023-10-08T06:25:01;3.60;;;1.47;;
11113;SDS011;5610;52.154;9.198;2023-10-08T06:28:01;5.80;;;1.37;;
11113;SDS011;5610;52.154;9.198;2023-10-08T06:30:48;3.20;;;1.30;;
11113;SDS011;5610;52.154;9.198;2023-10-08T06:33:37;7.80;;;1.77;;
11113;SDS011;5610;52.154;9.198;2023-10-08T06:36:24;5.77;;;1.83;;
11113;SDS011;5610;52.154;9.198;2023-10-08T06:39:11;5.83;;;1.50;;
11113;SDS011;5610;52.154;9.198;2023-10-08T06:42:04;5.17;;;2.00;;
11113;SDS011;5610;52.154;9.198;2023-10-08T06:44:53;2.80;;;1.60;;
11113;SDS011;5610;52.154;9.198;2023-10-08T06:47:41;3.00;;;1.80;;
11113;SDS011;5610;52.154;9.198;2023-10-08T06:50:29;2.10;;;1.73;;
11113;SDS011;5610;52.154;9.198;2023-10-08T06:53:17;3.00;;;2.13;;
11113;SDS011;5610;52.154;9.198;2023-10-08T06:56:02;2.33;;;1.60;;
11113;SDS011;5610;52.154;9.198;2023-10-08T06:58:50;1.93;;;1.70;;
11113;SDS011;5610;52.154;9.198;2023-10-08T07:01:37;2.93;;;1.90;;
11113;SDS011;5610;52.154;9.198;2023-10-08T07:04:25;1.80;;;1.43;;
11113;SDS011;5610;52.154;9.198;2023-10-08T07:07:11;2.37;;;2.17;;
11113;SDS011;5610;52.154;9.198;2023-10-08T07:10:02;4.13;;;2.30;;
11113;SDS011;5610;52.154;9.198;2023-10-08T07:12:48;2.80;;;2.20;;
11113;SDS011;5610;52.154;9.198;2023-10-08T07:15:38;3.33;;;2.50;;
11113;SDS011;5610;52.154;9.198;2023-10-08T07:18:28;3.37;;;2.70;;
11113;SDS011;5610;52.154;9.198;2023-10-08T07:21:16;6.10;;;3.10;;
11113;SDS011;5610;52.154;9.198;2023-10-08T07:24:02;5.50;;;3.57;;
11113;SDS011;5610;52.154;9.198;2023-10-08T07:26:48;4.83;;;2.90;;
11113;SDS011;5610;52.154;9.198;2023-10-08T07:29:39;5.77;;;3.30;;
11113;SDS011;5610;52.154;9.198;2023-10-08T07:32:26;3.90;;;3.20;;
11113;SDS011;5610;52.154;9.198;2023-10-08T07:35:14;3.70;;;3.20;;
11113;SDS011;5610;52.154;9.198;2023-10-08T07:38:07;4.33;;;2.93;;
11113;SDS011;5610;52.154;9.198;2023-10-08T07:40:53;2.77;;;2.57;;
11113;SDS011;5610;52.154;9.198;2023-10-08T07:43:40;4.80;;;2.57;;
11113;SDS011;5610;52.154;9.198;2023-10-08T07:46:25;5.23;;;3.20;;
11113;SDS011;5610;52.154;9.198;2023-10-08T07:49:12;4.40;;;3.97;;
11113;SDS011;5610;52.154;9.198;2023-10-08T07:51:58;3.57;;;3.27;;
11113;SDS011;5610;52.154;9.198;2023-10-08T07:54:43;6.73;;;3.20;;
11113;SDS011;5610;52.154;9.198;2023-10-08T07:57:29;3.10;;;2.80;;
11113;SDS011;5610;52.154;9.198;2023-10-08T08:00:15;5.07;;;3.50;;
11113;SDS011;5610;52.154;9.198;2023-10-08T08:03:06;4.20;;;2.57;;
11113;SDS011;5610;52.154;9.198;2023-10-08T08:05:53;6.00;;;3.03;;
11113;SDS011;5610;52.154;9.198;2023-10-08T08:08:39;5.97;;;2.80;;
11113;SDS011;5610;52.154;9.198;2023-10-08T08:11:24;8.77;;;3.30;;
11113;SDS011;5610;52.154;9.198;2023-10-08T08:14:10;6.27;;;2.70;;
11113;SDS011;5610;52.154;9.198;2023-10-08T08:16:55;2.93;;;2.10;;
11113;SDS011;5610;52.154;9.198;2023-10-08T08:19:40;4.97;;;2.87;;
11113;SDS011;5610;52.154;9.198;2023-10-08T08:22:27;4.43;;;2.80;;
11113;SDS011;5610;52.154;9.198;2023-10-08T08:25:15;4.37;;;3.00;;
11113;SDS011;5610;52.154;9.198;2023-10-08T08:28:10;5.40;;;3.57;;
11113;SDS011;5610;52.154;9.198;2023-10-08T08:31:03;4.60;;;2.83;;
11113;SDS011;5610;52.154;9.198;2023-10-08T08:33:57;3.73;;;2.83;;
11113;SDS011;5610;52.154;9.198;2023-10-08T08:36:46;5.10;;;3.00;;
11113;SDS011;5610;52.154;9.198;2023-10-08T08:39:33;5.43;;;2.67;;
11113;SDS011;5610;52.154;9.198;2023-10-08T08:42:21;6.73;;;3.43;;
11113;SDS011;5610;52.154;9.198;2023-10-08T08:45:09;5.53;;;2.57;;
11113;SDS011;5610;52.154;9.198;2023-10-08T08:47:57;3.03;;;2.37;;
11113;SDS011;5610;52.154;9.198;2023-10-08T08:50:43;3.73;;;2.30;;
11113;SDS011;5610;52.154;9.198;2023-10-08T08:53:31;2.90;;;2.20;;
11113;SDS011;5610;52.154;9.198;2023-10-08T08:56:17;3.90;;;2.70;;
11113;SDS011;5610;52.154;9.198;2023-10-08T08:59:03;4.53;;;2.23;;
11113;SDS011;5610;52.154;9.198;2023-10-08T09:01:49;5.07;;;2.67;;
11113;SDS011;5610;52.154;9.198;2023-10-08T09:04:35;2.60;;;2.30;;
11113;SDS011;5610;52.154;9.198;2023-10-08T09:07:23;3.93;;;2.27;;
11113;SDS011;5610;52.154;9.198;2023-10-08T09:10:08;7.70;;;2.80;;
11113;SDS011;5610;52.154;9.198;2023-10-08T09:12:57;7.97;;;2.10;;
11113;SDS011;5610;52.154;9.198;2023-10-08T09:15:43;2.77;;;2.10;;
11113;SDS011;5610;52.154;9.198;2023-10-08T09:18:28;3.63;;;2.03;;
11113;SDS011;5610;52.154;9.198;2023-10-08T09:21:16;3.60;;;2.20;;
11113;SDS011;5610;52.154;9.198;2023-10-08T09:24:06;3.67;;;2.10;;
11113;SDS011;5610;52.154;9.198;2023-10-08T09:26:55;3.10;;;2.27;;
11113;SDS011;5610;52.154;9.198;2023-10-08T09:29:43;5.80;;;2.00;;
11113;SDS011;5610;52.154;9.198;2023-10-08T09:32:28;7.87;;;2.63;;
11113;SDS011;5610;52.154;9.198;2023-10-08T09:35:17;5.47;;;2.07;;
11113;SDS011;5610;52.154;9.198;2023-10-08T09:38:03;2.27;;;1.57;;
11113;SDS011;5610;52.154;9.198;2023-10-08T09:40:49;5.33;;;2.07;;
11113;SDS011;5610;52.154;9.198;2023-10-08T09:43:36;3.93;;;2.00;;
11113;SDS011;5610;52.154;9.198;2023-10-08T09:46:28;4.40;;;1.70;;
11113;SDS011;5610;52.154;9.198;2023-10-08T09:49:16;2.70;;;1.43;;
11113;SDS011;5610;52.154;9.198;2023-10-08T09:52:03;9.30;;;2.20;;
11113;SDS011;5610;52.154;9.198;2023-10-08T09:54:53;5.90;;;2.57;;
11113;SDS011;5610;52.154;9.198;2023-10-08T09:57:45;7.30;;;1.83;;
11113;SDS011;5610;52.154;9.198;2023-10-08T10:00:30;5.43;;;1.93;;
11113;SDS011;5610;52.154;9.198;2023-10-08T10:03:17;3.53;;;2.03;;
11113;SDS011;5610;52.154;9.198;2023-10-08T10:06:07;3.47;;;1.60;;
11113;SDS011;5610;52.154;9.198;2023-10-08T10:08:58;5.40;;;2.00;;
11113;SDS011;5610;52.154;9.198;2023-10-08T10:11:45;4.53;;;1.60;;
11113;SDS011;5610;52.154;9.198;2023-10-08T10:14:40;3.33;;;1.83;;
11113;SDS011;5610;52.154;9.198;2023-10-08T10:17:26;3.50;;;1.80;;
11113;SDS011;5610;52.154;9.198;2023-10-08T10:20:14;2.77;;;1.73;;
11113;SDS011;5610;52.154;9.198;2023-10-08T10:23:00;7.30;;;1.90;;
11113;SDS011;5610;52.154;9.198;2023-10-08T10:26:05;2.47;;;1.60;;
11113;SDS011;5610;52.154;9.198;2023-10-08T10:29:22;3.67;;;1.70;;
11113;SDS011;5610;52.154;9.198;2023-10-08T10:32:10;4.13;;;2.10;;
11113;SDS011;5610;52.154;9.198;2023-10-08T10:34:58;6.33;;;2.20;;
11113;SDS011;5610;52.154;9.198;2023-10-08T10:37:48;5.53;;;2.10;;
11113;SDS011;5610;52.154;9.198;2023-10-08T10:40:36;3.37;;;1.63;;
11113;SDS011;5610;52.154;9.198;2023-10-08T10:43:24;7.40;;;1.97;;
11113;SDS011;5610;52.154;9.198;2023-10-08T10:46:16;2.93;;;1.60;;
11113;SDS011;5610;52.154;9.198;2023-10-08T10:49:14;3.37;;;1.40;;
11113;SDS011;5610;52.154;9.198;2023-10-08T10:52:02;4.73;;;1.63;;
11113;SDS011;5610;52.154;9.198;2023-10-08T10:54:51;5.23;;;2.40;;
11113;SDS011;5610;52.154;9.198;2023-10-08T10:57:42;3.80;;;1.87;;
11113;SDS011;5610;52.154;9.198;2023-10-08T11:00:28;9.97;;;2.47;;
11113;SDS011;5610;52.154;9.198;2023-10-08T11:03:31;7.80;;;2.10;;
11113;SDS011;5610;52.154;9.198;2023-10-08T11:06:18;6.87;;;2.10;;
11113;SDS011;5610;52.154;9.198;2023-10-08T11:09:08;6.17;;;2.70;;
11113;SDS011;5610;52.154;9.198;2023-10-08T11:11:59;5.60;;;2.23;;
11113;SDS011;5610;52.154;9.198;2023-10-08T11:14:46;7.27;;;2.30;;
11113;SDS011;5610;52.154;9.198;2023-10-08T11:17:32;10.00;;;2.80;;
11113;SDS011;5610;52.154;9.198;2023-10-08T11:20:23;6.33;;;2.30;;
11113;SDS011;5610;52.154;9.198;2023-10-08T11:23:09;5.60;;;1.90;;
11113;SDS011;5610;52.154;9.198;2023-10-08T11:26:04;5.57;;;1.67;;
11113;SDS011;5610;52.154;9.198;2023-10-08T11:28:51;6.73;;;1.83;;
11113;SDS011;5610;52.154;9.198;2023-10-08T11:31:36;3.20;;;1.40;;
11113;SDS011;5610;52.154;9.198;2023-10-08T11:34:23;2.47;;;1.40;;
11113;SDS011;5610;52.154;9.198;2023-10-08T11:37:26;3.80;;;1.50;;
11113;SDS011;5610;52.154;9.198;2023-10-08T11:40:21;6.27;;;1.87;;
11113;SDS011;5610;52.154;9.198;2023-10-08T11:43:11;3.70;;;1.73;;
11113;SDS011;5610;52.154;9.198;2023-10-08T11:46:01;5.63;;;2.00;;
11113;SDS011;5610;52.154;9.198;2023-10-08T11:48:48;5.60;;;1.93;;
11113;SDS011;5610;52.154;9.198;2023-10-08T11:51:34;6.00;;;1.50;;
11113;SDS011;5610;52.154;9.198;2023-10-08T11:54:20;5.93;;;2.07;;
11113;SDS011;5610;52.154;9.198;2023-10-08T11:57:07;3.93;;;1.57;;
11113;SDS011;5610;52.154;9.198;2023-10-08T11:59:53;4.93;;;1.70;;
11113;SDS011;5610;52.154;9.198;2023-10-08T12:02:39;2.80;;;1.20;;
11113;SDS011;5610;52.154;9.198;2023-10-08T12:05:27;2.90;;;1.40;;
11113;SDS011;5610;52.154;9.198;2023-10-08T12:08:12;3.50;;;1.87;;
11113;SDS011;5610;52.154;9.198;2023-10-08T12:11:00;5.90;;;1.40;;
11113;SDS011;5610;52.154;9.198;2023-10-08T12:13:45;3.67;;;1.43;;
11113;SDS011;5610;52.154;9.198;2023-10-08T12:16:31;3.83;;;1.67;;
11113;SDS011;5610;52.154;9.198;2023-10-08T12:19:20;3.83;;;1.67;;
11113;SDS011;5610;52.154;9.198;2023-10-08T12:22:06;4.70;;;1.40;;
11113;SDS011;5610;52.154;9.198;2023-10-08T12:24:52;6.03;;;1.60;;
11113;SDS011;5610;52.154;9.198;2023-10-08T12:27:38;5.37;;;1.97;;
11113;SDS011;5610;52.154;9.198;2023-10-08T12:30:23;6.43;;;1.90;;
11113;SDS011;5610;52.154;9.198;2023-10-08T12:33:14;3.20;;;1.70;;
11113;SDS011;5610;52.154;9.198;2023-10-08T12:36:01;5.23;;;1.83;;
11113;SDS011;5610;52.154;9.198;2023-10-08T12:38:54;6.43;;;1.60;;
11113;SDS011;5610;52.154;9.198;2023-10-08T12:41:41;3.90;;;1.53;;
11113;SDS011;5610;52.154;9.198;2023-10-08T12:44:27;4.53;;;1.63;;
11113;SDS011;5610;52.154;9.198;2023-10-08T12:47:13;5.67;;;2.10;;
11113;SDS011;5610;52.154;9.198;2023-10-08T12:49:59;4.30;;;1.40;;
11113;SDS011;5610;52.154;9.198;2023-10-08T12:52:46;3.00;;;1.67;;
11113;SDS011;5610;52.154;9.198;2023-10-08T12:55:38;8.30;;;1.47;;
11113;SDS011;5610;52.154;9.198;2023-10-08T12:58:24;2.90;;;1.70;;
11113;SDS011;5610;52.154;9.198;2023-10-08T13:01:13;4.40;;;1.47;;
11113;SDS011;5610;52.154;9.198;2023-10-08T13:04:01;4.80;;;1.80;;
11113;SDS011;5610;52.154;9.198;2023-10-08T13:06:51;3.57;;;1.47;;
11113;SDS011;5610;52.154;9.198;2023-10-08T13:09:41;4.37;;;1.70;;
11113;SDS011;5610;52.154;9.198;2023-10-08T13:12:26;3.10;;;1.23;;
11113;SDS011;5610;52.154;9.198;2023-10-08T13:15:12;3.00;;;1.33;;
11113;SDS011;5610;52.154;9.198;2023-10-08T13:17:57;2.60;;;1.40;;
11113;SDS011;5610;52.154;9.198;2023-10-08T13:20:44;5.57;;;1.60;;
11113;SDS011;5610;52.154;9.198;2023-10-08T13:23:31;7.00;;;1.70;;
11113;SDS011;5610;52.154;9.198;2023-10-08T13:26:20;3.27;;;1.60;;
11113;SDS011;5610;52.154;9.198;2023-10-08T13:29:08;5.73;;;1.50;;
11113;SDS011;5610;52.154;9.198;2023-10-08T13:31:53;3.67;;;1.53;;
11113;SDS011;5610;52.154;9.198;2023-10-08T13:34:38;3.73;;;1.40;;
11113;SDS011;5610;52.154;9.198;2023-10-08T13:37:23;5.73;;;1.60;;
11113;SDS011;5610;52.154;9.198;2023-10-08T13:40:09;2.70;;;1.20;;
11113;SDS011;5610;52.154;9.198;2023-10-08T13:43:00;2.33;;;1.20;;
11113;SDS011;5610;52.154;9.198;2023-10-08T13:45:46;3.83;;;1.37;;
11113;SDS011;5610;52.154;9.198;2023-10-08T13:48:31;4.40;;;1.67;;
11113;SDS011;5610;52.154;9.198;2023-10-08T13:51:18;4.87;;;1.77;;
11113;SDS011;5610;52.154;9.198;2023-10-08T13:54:07;3.97;;;1.33;;
11113;SDS011;5610;52.154;9.198;2023-10-08T13:56:53;3.87;;;1.63;;
11113;SDS011;5610;52.154;9.198;2023-10-08T13:59:39;3.07;;;1.40;;
11113;SDS011;5610;52.154;9.198;2023-10-08T14:02:26;2.10;;;1.43;;
11113;SDS011;5610;52.154;9.198;2023-10-08T14:05:14;2.40;;;1.30;;
11113;SDS011;5610;52.154;9.198;2023-10-08T14:07:59;4.43;;;1.90;;
11113;SDS011;5610;52.154;9.198;2023-10-08T14:10:48;5.10;;;1.97;;
11113;SDS011;5610;52.154;9.198;2023-10-08T14:13:33;2.57;;;1.37;;
11113;SDS011;5610;52.154;9.198;2023-10-08T14:16:22;2.03;;;1.20;;
11113;SDS011;5610;52.154;9.198;2023-10-08T14:19:12;6.37;;;1.93;;
11113;SDS011;5610;52.154;9.198;2023-10-08T14:21:58;4.60;;;2.10;;
11113;SDS011;5610;52.154;9.198;2023-10-08T14:24:47;2.70;;;1.53;;
11113;SDS011;5610;52.154;9.198;2023-10-08T14:27:42;4.33;;;1.93;;
11113;SDS011;5610;52.154;9.198;2023-10-08T14:30:35;6.03;;;1.60;;
11113;SDS011;5610;52.154;9.198;2023-10-08T14:33:26;4.00;;;1.90;;
11113;SDS011;5610;52.154;9.198;2023-10-08T14:36:15;6.57;;;2.10;;
11113;SDS011;5610;52.154;9.198;2023-10-08T14:39:18;4.00;;;2.10;;
11113;SDS011;5610;52.154;9.198;2023-10-08T14:42:21;5.37;;;1.97;;
11113;SDS011;5610;52.154;9.198;2023-10-08T14:45:25;4.20;;;1.43;;
11113;SDS011;5610;52.154;9.198;2023-10-08T14:48:11;3.00;;;1.37;;
11113;SDS011;5610;52.154;9.198;2023-10-08T14:50:58;6.37;;;1.77;;
11113;SDS011;5610;52.154;9.198;2023-10-08T14:53:45;3.50;;;1.57;;
11113;SDS011;5610;52.154;9.198;2023-10-08T14:56:31;4.83;;;2.00;;
11113;SDS011;5610;52.154;9.198;2023-10-08T14:59:16;5.47;;;1.57;;
11113;SDS011;5610;52.154;9.198;2023-10-08T15:02:02;5.37;;;1.60;;
11113;SDS011;5610;52.154;9.198;2023-10-08T15:04:48;6.37;;;1.60;;
11113;SDS011;5610;52.154;9.198;2023-10-08T15:07:35;7.13;;;1.70;;
11113;SDS011;5610;52.154;9.198;2023-10-08T15:10:21;2.80;;;1.30;;
11113;SDS011;5610;52.154;9.198;2023-10-08T15:13:06;7.60;;;2.10;;
11113;SDS011;5610;52.154;9.198;2023-10-08T15:15:51;7.07;;;1.63;;
11113;SDS011;5610;52.154;9.198;2023-10-08T15:18:38;2.63;;;1.73;;
11113;SDS011;5610;52.154;9.198;2023-10-08T15:21:25;5.77;;;1.70;;
11113;SDS011;5610;52.154;9.198;2023-10-08T15:24:12;4.93;;;1.80;;
11113;SDS011;5610;52.154;9.198;2023-10-08T15:26:58;3.57;;;1.90;;
11113;SDS011;5610;52.154;9.198;2023-10-08T15:29:43;3.10;;;1.50;;
11113;SDS011;5610;52.154;9.198;2023-10-08T15:32:29;5.30;;;1.60;;
11113;SDS011;5610;52.154;9.198;2023-10-08T15:35:16;2.60;;;1.63;;
11113;SDS011;5610;52.154;9.198;2023-10-08T15:38:03;3.50;;;1.60;;
11113;SDS011;5610;52.154;9.198;2023-10-08T15:40:50;4.13;;;1.97;;
11113;SDS011;5610;52.154;9.198;2023-10-08T15:43:35;2.10;;;1.43;;
11113;SDS011;5610;52.154;9.198;2023-10-08T15:46:21;3.13;;;1.53;;
11113;SDS011;5610;52.154;9.198;2023-10-08T15:49:06;4.33;;;1.73;;
11113;SDS011;5610;52.154;9.198;2023-10-08T15:51:53;3.30;;;1.77;;
11113;SDS011;5610;52.154;9.198;2023-10-08T15:54:38;2.93;;;1.40;;
11113;SDS011;5610;52.154;9.198;2023-10-08T15:57:26;4.57;;;1.50;;
11113;SDS011;5610;52.154;9.198;2023-10-08T16:00:11;4.30;;;1.93;;
11113;SDS011;5610;52.154;9.198;2023-10-08T16:02:58;3.03;;;1.60;;
11113;SDS011;5610;52.154;9.198;2023-10-08T16:05:43;5.80;;;1.93;;
11113;SDS011;5610;52.154;9.198;2023-10-08T16:08:30;3.00;;;1.63;;
11113;SDS011;5610;52.154;9.198;2023-10-08T16:11:15;7.07;;;1.53;;
11113;SDS011;5610;52.154;9.198;2023-10-08T16:14:02;5.20;;;1.80;;
11113;SDS011;5610;52.154;9.198;2023-10-08T16:16:47;1.80;;;1.40;;
11113;SDS011;5610;52.154;9.198;2023-10-08T16:19:34;4.40;;;2.13;;
11113;SDS011;5610;52.154;9.198;2023-10-08T16:22:21;4.37;;;1.93;;
11113;SDS011;5610;52.154;9.198;2023-10-08T16:25:07;3.00;;;1.87;;
11113;SDS011;5610;52.154;9.198;2023-10-08T16:27:56;5.10;;;1.70;;
11113;SDS011;5610;52.154;9.198;2023-10-08T16:30:43;4.17;;;1.53;;
11113;SDS011;5610;52.154;9.198;2023-10-08T16:33:34;3.03;;;1.60;;
11113;SDS011;5610;52.154;9.198;2023-10-08T16:36:20;2.50;;;1.80;;
11113;SDS011;5610;52.154;9.198;2023-10-08T16:39:05;6.80;;;1.80;;
11113;SDS011;5610;52.154;9.198;2023-10-08T16:41:54;5.00;;;2.27;;
11113;SDS011;5610;52.154;9.198;2023-10-08T16:44:39;4.53;;;1.67;;
11113;SDS011;5610;52.154;9.198;2023-10-08T16:47:26;6.43;;;1.70;;
11113;SDS011;5610;52.154;9.198;2023-10-08T16:50:11;5.20;;;1.70;;
11113;SDS011;5610;52.154;9.198;2023-10-08T16:52:56;2.80;;;1.50;;
11113;SDS011;5610;52.154;9.198;2023-10-08T16:55:41;4.90;;;1.40;;
11113;SDS011;5610;52.154;9.198;2023-10-08T16:58:29;3.80;;;1.70;;
11113;SDS011;5610;52.154;9.198;2023-10-08T17:01:14;5.23;;;1.67;;
11113;SDS011;5610;52.154;9.198;2023-10-08T17:04:01;3.60;;;1.67;;
11113;SDS011;5610;52.154;9.198;2023-10-08T17:06:49;2.67;;;1.70;;
11113;SDS011;5610;52.154;9.198;2023-10-08T17:09:35;1.83;;;1.57;;
11113;SDS011;5610;52.154;9.198;2023-10-08T17:12:21;3.73;;;1.90;;